createdAt,value
2019-03-20T00:00:18.078Z,99.90
2019-03-20T00:02:47.005Z,99.90
2019-03-20T00:05:15.939Z,99.90
2019-03-20T00:07:44.944Z,99.90
2019-03-20T00:10:13.924Z,99.90
2019-03-20T00:12:42.746Z,99.90
2019-03-20T00:15:11.820Z,99.90
2019-03-20T00:17:40.682Z,99.90
2019-03-20T00:20:10.239Z,99.90
2019-03-20T00:22:39.068Z,99.90
2019-03-20T00:25:07.972Z,99.90
2019-03-20T00:27:36.771Z,99.90
2019-03-20T00:30:05.969Z,99.90
2019-03-20T00:32:34.773Z,99.90
2019-03-20T00:35:03.905Z,99.90
2019-03-20T00:37:32.682Z,99.90
2019-03-20T00:40:01.442Z,99.90
2019-03-20T00:42:30.307Z,99.90
2019-03-20T00:44:59.062Z,99.90
2019-03-20T00:47:27.956Z,99.90
2019-03-20T00:49:58.078Z,99.90
2019-03-20T00:52:27.148Z,99.90
2019-03-20T00:54:55.939Z,99.90
2019-03-20T00:57:24.720Z,99.90
2019-03-20T00:59:53.647Z,99.90
2019-03-20T01:02:22.478Z,99.90
2019-03-20T01:04:51.269Z,99.90
2019-03-20T01:07:20.161Z,99.90
2019-03-20T01:09:48.964Z,99.90
2019-03-20T01:12:17.854Z,99.90
2019-03-20T01:14:46.619Z,99.90
2019-03-20T01:17:15.416Z,99.90
2019-03-20T01:19:44.306Z,99.90
2019-03-20T01:22:13.169Z,99.90
2019-03-20T01:24:41.975Z,99.90
2019-03-20T01:27:10.750Z,99.90
2019-03-20T01:29:39.687Z,99.90
2019-03-20T01:32:08.458Z,99.90
2019-03-20T01:34:37.346Z,99.90
2019-03-20T01:37:06.371Z,99.90
2019-03-20T01:39:35.315Z,99.90
2019-03-20T01:42:04.196Z,99.90
2019-03-20T01:44:33.006Z,99.90
2019-03-20T01:47:01.897Z,99.90
2019-03-20T01:49:30.768Z,99.90
2019-03-20T01:51:59.684Z,99.90
2019-03-20T01:54:28.512Z,99.90
2019-03-20T01:56:57.298Z,99.90
2019-03-20T01:59:26.093Z,99.90
2019-03-20T02:01:54.885Z,99.90
2019-03-20T02:04:23.748Z,99.90
2019-03-20T02:06:52.616Z,99.90
2019-03-20T02:09:21.467Z,99.90
2019-03-20T02:11:50.238Z,99.90
2019-03-20T02:14:19.061Z,99.90
2019-03-20T02:16:47.803Z,99.90
2019-03-20T02:19:16.784Z,99.90
2019-03-20T02:21:45.616Z,99.90
2019-03-20T02:24:14.387Z,99.90
2019-03-20T02:26:43.186Z,99.90
2019-03-20T02:29:12.000Z,99.90
2019-03-20T02:31:40.793Z,99.90
2019-03-20T02:34:09.635Z,99.90
2019-03-20T02:36:38.449Z,99.90
2019-03-20T02:39:07.952Z,99.90
2019-03-20T02:41:36.824Z,99.90
2019-03-20T02:44:05.673Z,99.90
2019-03-20T02:46:34.519Z,99.90
2019-03-20T02:49:03.329Z,99.90
2019-03-20T02:51:32.154Z,99.90
2019-03-20T02:54:00.954Z,99.90
2019-03-20T02:56:29.752Z,99.90
2019-03-20T02:58:58.575Z,99.90
2019-03-20T03:01:27.453Z,99.90
2019-03-20T03:03:56.803Z,99.90
2019-03-20T03:06:25.641Z,99.90
2019-03-20T03:08:54.545Z,99.90
2019-03-20T03:11:23.471Z,99.90
2019-03-20T03:13:52.291Z,99.90
2019-03-20T03:16:21.092Z,99.90
2019-03-20T03:18:49.893Z,99.90
2019-03-20T03:21:18.741Z,99.90
2019-03-20T03:23:47.595Z,99.90
2019-03-20T03:26:16.369Z,99.90
2019-03-20T03:28:45.310Z,99.90
2019-03-20T03:31:14.198Z,99.90
2019-03-20T03:33:43.001Z,99.90
2019-03-20T03:36:21.071Z,99.90
2019-03-20T03:38:42.353Z,99.90
2019-03-20T03:41:11.380Z,99.90
2019-03-20T03:43:40.149Z,99.90
2019-03-20T03:46:08.995Z,99.90
2019-03-20T03:48:37.766Z,99.90
2019-03-20T03:51:06.667Z,99.90
2019-03-20T03:53:35.572Z,99.90
2019-03-20T03:56:04.348Z,99.90
2019-03-20T03:58:33.112Z,99.90
2019-03-20T04:01:01.909Z,99.90
2019-03-20T04:03:30.672Z,99.90
2019-03-20T04:05:59.460Z,99.90
2019-03-20T04:08:28.363Z,99.90
2019-03-20T04:10:57.162Z,99.90
2019-03-20T04:13:26.000Z,99.90
2019-03-20T04:15:54.897Z,99.90
2019-03-20T04:18:23.709Z,99.90
2019-03-20T04:20:52.570Z,99.90
2019-03-20T04:23:21.458Z,99.90
2019-03-20T04:25:50.311Z,99.90
2019-03-20T04:28:19.135Z,99.90
2019-03-20T04:30:47.933Z,99.90
2019-03-20T04:33:16.704Z,99.90
2019-03-20T04:35:45.441Z,99.90
2019-03-20T04:38:14.383Z,99.90
2019-03-20T04:40:43.172Z,99.90
2019-03-20T04:43:11.967Z,99.90
2019-03-20T04:45:40.792Z,99.90
2019-03-20T04:48:09.660Z,99.90
2019-03-20T04:50:38.437Z,99.90
2019-03-20T04:53:07.266Z,99.90
2019-03-20T04:55:36.184Z,99.90
2019-03-20T04:58:05.035Z,99.90
2019-03-20T05:00:34.177Z,99.90
2019-03-20T05:03:03.170Z,99.90
2019-03-20T05:05:33.454Z,99.90
2019-03-20T05:08:02.822Z,99.90
2019-03-20T05:10:31.691Z,99.90
2019-03-20T05:13:00.992Z,99.90
2019-03-20T05:15:31.400Z,99.90
2019-03-20T05:18:00.228Z,99.90
2019-03-20T05:20:29.431Z,99.90
2019-03-20T05:22:58.306Z,99.90
2019-03-20T05:25:27.668Z,99.90
2019-03-20T05:27:56.959Z,99.90
2019-03-20T05:30:30.251Z,99.90
2019-03-20T05:32:59.168Z,99.90
2019-03-20T05:35:28.583Z,99.90
2019-03-20T05:37:57.767Z,99.90
2019-03-20T05:40:27.135Z,99.90
2019-03-20T05:42:59.343Z,99.90
2019-03-20T05:45:28.147Z,99.90
2019-03-20T05:47:57.433Z,99.90
2019-03-20T05:50:26.679Z,99.90
2019-03-20T05:52:58.893Z,99.90
2019-03-20T05:55:27.745Z,99.90
2019-03-20T05:57:56.843Z,99.90
2019-03-20T06:00:29.178Z,99.90
2019-03-20T06:02:58.063Z,99.90
2019-03-20T06:05:26.924Z,99.90
2019-03-20T06:07:55.791Z,99.90
2019-03-20T06:10:24.670Z,99.90
2019-03-20T06:12:53.506Z,99.90
2019-03-20T06:15:24.546Z,99.90
2019-03-20T06:17:52.816Z,99.90
2019-03-20T06:20:21.621Z,99.90
2019-03-20T06:22:50.565Z,99.90
2019-03-20T06:25:21.342Z,99.90
2019-03-20T06:27:49.903Z,99.90
2019-03-20T06:30:18.998Z,99.90
2019-03-20T06:32:48.115Z,99.90
2019-03-20T06:35:17.429Z,99.90
2019-03-20T06:37:46.281Z,99.90
2019-03-20T06:40:16.040Z,99.90
2019-03-20T06:42:45.024Z,99.90
2019-03-20T06:45:14.048Z,99.90
2019-03-20T06:47:42.886Z,99.90
2019-03-20T06:50:13.836Z,99.90
2019-03-20T06:52:42.845Z,99.90
2019-03-20T06:55:12.438Z,99.90
2019-03-20T06:57:41.500Z,99.90
2019-03-20T07:00:38.295Z,99.90
2019-03-20T07:03:10.288Z,99.90
2019-03-20T07:06:32.985Z,99.90
2019-03-20T07:09:25.581Z,99.90
2019-03-20T07:11:54.643Z,99.90
2019-03-20T07:14:23.568Z,99.90
2019-03-20T07:16:52.448Z,99.90
2019-03-20T07:19:21.281Z,99.90
2019-03-20T07:21:50.408Z,99.90
2019-03-20T07:24:19.304Z,99.90
2019-03-20T07:26:48.295Z,99.90
2019-03-20T07:29:17.192Z,99.90
2019-03-20T07:31:46.043Z,99.90
2019-03-20T07:34:15.438Z,99.90
2019-03-20T07:36:44.291Z,99.90
2019-03-20T07:39:13.299Z,99.90
2019-03-20T07:41:42.150Z,99.90
2019-03-20T07:44:11.023Z,99.90
2019-03-20T07:46:41.364Z,99.90
2019-03-20T07:49:10.203Z,99.90
2019-03-20T07:51:38.987Z,99.90
2019-03-20T07:54:07.848Z,99.90
2019-03-20T07:56:36.610Z,99.90
2019-03-20T07:59:05.836Z,99.90
2019-03-20T08:01:34.846Z,99.90
2019-03-20T08:04:07.570Z,99.90
2019-03-20T08:06:36.523Z,99.90
2019-03-20T08:09:07.567Z,99.90
2019-03-20T08:14:12.309Z,99.90
2019-03-20T08:16:41.853Z,99.90
2019-03-20T08:19:10.721Z,99.90
2019-03-20T08:21:39.526Z,99.90
2019-03-20T08:24:08.342Z,99.90
2019-03-20T08:26:37.276Z,99.90
2019-03-20T08:29:06.183Z,99.90
2019-03-20T08:31:34.983Z,99.90
2019-03-20T08:34:03.809Z,99.90
2019-03-20T08:36:32.735Z,99.90
2019-03-20T08:39:01.621Z,99.90
2019-03-20T08:41:30.501Z,99.90
2019-03-20T08:43:59.349Z,99.90
2019-03-20T08:46:28.139Z,99.90
2019-03-20T08:48:57.007Z,99.90
2019-03-20T08:51:25.913Z,99.90
2019-03-20T08:53:56.299Z,99.90
2019-03-20T08:56:25.321Z,99.90
2019-03-20T08:58:54.219Z,99.90
2019-03-20T09:01:28.351Z,99.90
2019-03-20T09:03:53.626Z,99.90
2019-03-20T09:06:22.576Z,99.90
2019-03-20T09:08:51.453Z,99.90
2019-03-20T09:11:20.291Z,99.90
2019-03-20T09:13:49.125Z,99.90
2019-03-20T09:16:18.015Z,99.90
2019-03-20T09:18:46.802Z,99.90
2019-03-20T09:21:15.631Z,99.90
2019-03-20T09:23:44.434Z,99.90
2019-03-20T09:26:13.419Z,99.90
2019-03-20T09:28:42.219Z,99.90
2019-03-20T09:31:11.115Z,99.90
2019-03-20T09:33:39.892Z,99.90
2019-03-20T09:36:08.661Z,99.90
2019-03-20T09:38:43.708Z,99.90
2019-03-20T09:41:10.522Z,99.90
2019-03-20T09:43:39.392Z,99.90
2019-03-20T09:46:08.253Z,99.90
2019-03-20T09:48:37.075Z,99.90
2019-03-20T09:51:07.104Z,99.90
2019-03-20T09:53:36.017Z,99.90
2019-03-20T09:56:05.243Z,99.90
2019-03-20T09:58:34.045Z,99.90
2019-03-20T10:01:03.022Z,99.90
2019-03-20T10:03:31.945Z,99.90
2019-03-20T10:06:00.771Z,99.90
2019-03-20T10:08:29.724Z,99.90
2019-03-20T10:10:58.617Z,99.90
2019-03-20T10:13:27.459Z,99.90
2019-03-20T10:15:56.339Z,99.90
2019-03-20T10:18:25.216Z,99.90
2019-03-20T10:20:54.109Z,99.50
2019-03-20T10:23:23.041Z,99.30
2019-03-20T10:25:51.964Z,99.90
2019-03-20T10:28:20.852Z,99.70
2019-03-20T10:30:49.674Z,99.50
2019-03-20T10:33:18.588Z,99.30
2019-03-20T10:35:50.504Z,98.50
2019-03-20T10:38:18.009Z,93.80
2019-03-20T10:40:47.102Z,91.30
2019-03-20T10:43:15.970Z,84.70
2019-03-20T10:45:44.850Z,77.60
2019-03-20T10:48:13.676Z,71.10
2019-03-20T10:50:42.568Z,67.20
2019-03-20T10:53:11.496Z,63.40
2019-03-20T10:55:40.386Z,63.00
2019-03-20T10:58:09.323Z,61.20
2019-03-20T11:00:40.645Z,59.50
2019-03-20T11:03:08.825Z,59.30
2019-03-20T11:05:37.800Z,57.30
2019-03-20T11:08:09.578Z,54.60
2019-03-20T11:10:38.609Z,54.70
2019-03-20T11:13:07.611Z,53.60
2019-03-20T11:15:36.530Z,50.50
2019-03-20T11:18:05.610Z,52.00
2019-03-20T11:20:34.742Z,50.50
2019-03-20T11:23:03.516Z,50.30
2019-03-20T11:25:32.424Z,51.00
2019-03-20T11:28:01.878Z,52.00
2019-03-20T11:30:30.963Z,51.60
2019-03-20T11:32:59.971Z,50.90
2019-03-20T11:35:28.923Z,50.40
2019-03-20T11:37:57.841Z,49.20
2019-03-20T11:40:28.258Z,49.70
2019-03-20T11:42:57.607Z,49.80
2019-03-20T11:45:26.542Z,50.30
2019-03-20T11:47:55.390Z,51.50
2019-03-20T11:50:29.878Z,50.30
2019-03-20T11:53:05.503Z,51.30
2019-03-20T11:55:34.532Z,51.00
2019-03-20T11:58:03.488Z,51.50
2019-03-20T12:00:32.549Z,52.60
2019-03-20T12:03:01.708Z,54.30
2019-03-20T12:05:30.568Z,54.60
2019-03-20T12:07:59.476Z,54.70
2019-03-20T12:10:28.340Z,56.40
2019-03-20T12:12:57.418Z,57.50
2019-03-20T12:15:26.704Z,57.80
2019-03-20T12:17:55.955Z,57.80
2019-03-20T12:20:25.134Z,57.00
2019-03-20T12:22:54.162Z,55.90
2019-03-20T12:25:25.277Z,56.00
2019-03-20T12:27:54.102Z,55.20
2019-03-20T12:30:25.806Z,55.60
2019-03-20T12:32:55.259Z,53.30
2019-03-20T12:35:27.509Z,52.00
2019-03-20T12:37:57.304Z,52.40
2019-03-20T12:40:27.490Z,52.50
2019-03-20T12:42:56.654Z,53.30
2019-03-20T12:45:34.677Z,53.20
2019-03-20T12:48:06.136Z,53.70
2019-03-20T12:50:35.102Z,53.00
2019-03-20T12:53:10.793Z,53.00
2019-03-20T12:55:39.647Z,52.70
2019-03-20T12:58:08.573Z,52.00
2019-03-20T13:00:39.989Z,51.60
2019-03-20T13:03:09.393Z,52.00
2019-03-20T13:05:38.579Z,51.20
2019-03-20T13:08:07.636Z,51.00
2019-03-20T13:10:36.507Z,51.10
2019-03-20T13:13:05.458Z,51.20
2019-03-20T13:15:34.527Z,50.30
2019-03-20T13:18:03.413Z,50.50
2019-03-20T13:20:32.309Z,52.10
2019-03-20T13:23:04.007Z,53.30
2019-03-20T13:25:33.063Z,54.70
2019-03-20T13:28:02.179Z,55.40
2019-03-20T13:30:34.434Z,55.70
2019-03-20T13:33:03.264Z,56.30
2019-03-20T13:35:34.397Z,55.90
2019-03-20T13:38:03.270Z,56.30
2019-03-20T13:40:32.177Z,56.20
2019-03-20T13:43:01.026Z,55.80
2019-03-20T13:45:29.839Z,55.00
2019-03-20T13:47:58.639Z,54.60
2019-03-20T13:50:27.452Z,53.90
2019-03-20T13:52:56.332Z,54.60
2019-03-20T13:55:25.202Z,53.50
2019-03-20T13:57:54.177Z,52.20
2019-03-20T14:00:23.114Z,52.10
2019-03-20T14:02:52.360Z,52.10
2019-03-20T14:05:21.417Z,52.50
2019-03-20T14:07:50.529Z,52.30
2019-03-20T14:10:24.991Z,51.20
2019-03-20T14:12:51.138Z,51.50
2019-03-20T14:15:20.523Z,50.90
2019-03-20T14:17:49.545Z,51.30
2019-03-20T14:20:23.271Z,51.20
2019-03-20T14:22:52.094Z,50.10
2019-03-20T14:25:20.942Z,50.80
2019-03-20T14:27:49.854Z,52.30
2019-03-20T14:30:20.887Z,53.00
2019-03-20T14:32:49.886Z,54.30
2019-03-20T14:35:18.754Z,54.10
2019-03-20T14:37:47.630Z,55.00
2019-03-20T14:40:17.832Z,54.50
2019-03-20T14:42:46.840Z,54.70
2019-03-20T14:45:15.821Z,53.30
2019-03-20T14:47:44.633Z,52.50
2019-03-20T14:50:15.823Z,51.80
2019-03-20T14:52:44.871Z,51.50
2019-03-20T14:55:13.969Z,51.60
2019-03-20T14:57:42.914Z,52.70
2019-03-20T15:00:17.631Z,52.20
2019-03-20T15:02:46.799Z,52.90
2019-03-20T15:05:15.814Z,53.10
2019-03-20T15:07:44.633Z,53.60
2019-03-20T15:10:15.567Z,54.10
2019-03-20T15:12:44.583Z,55.30
2019-03-20T15:15:22.760Z,56.60
2019-03-20T15:17:51.663Z,57.10
2019-03-20T15:20:20.579Z,58.20
2019-03-20T15:22:49.783Z,58.90
2019-03-20T15:25:18.820Z,59.20
2019-03-20T15:27:47.829Z,59.30
2019-03-20T15:30:17.328Z,58.60
2019-03-20T15:32:46.354Z,58.70
2019-03-20T15:35:20.142Z,58.80
2019-03-20T15:37:49.794Z,58.20
2019-03-20T15:40:18.708Z,58.30
2019-03-20T15:42:47.766Z,58.40
2019-03-20T15:45:17.341Z,58.10
2019-03-20T15:47:46.303Z,57.90
2019-03-20T15:50:16.193Z,58.50
2019-03-20T15:52:45.286Z,58.80
2019-03-20T15:55:16.902Z,58.70
2019-03-20T15:57:45.912Z,59.40
2019-03-20T16:00:16.842Z,59.30
2019-03-20T16:02:46.214Z,60.40
2019-03-20T16:05:15.016Z,60.60
2019-03-20T16:07:43.910Z,60.40
2019-03-20T16:10:18.356Z,60.40
2019-03-20T16:12:47.335Z,60.60
2019-03-20T16:15:22.146Z,61.10
2019-03-20T16:17:51.162Z,61.90
2019-03-20T16:20:20.251Z,62.20
2019-03-20T16:22:49.176Z,62.40
2019-03-20T16:25:19.860Z,62.80
2019-03-20T16:27:50.123Z,63.00
2019-03-20T16:30:23.136Z,63.80
2019-03-20T16:32:52.073Z,64.30
2019-03-20T16:35:21.113Z,65.00
2019-03-20T16:37:50.087Z,64.90
2019-03-20T16:40:25.363Z,65.10
2019-03-20T16:42:54.368Z,65.40
2019-03-20T16:45:25.920Z,65.90
2019-03-20T16:47:55.067Z,66.50
2019-03-20T16:50:24.047Z,66.90
2019-03-20T16:52:53.023Z,67.10
2019-03-20T16:55:24.041Z,67.10
2019-03-20T16:57:55.547Z,67.40
2019-03-20T17:00:26.168Z,67.80
2019-03-20T17:02:57.589Z,68.30
2019-03-20T17:05:27.076Z,68.10
2019-03-20T17:07:56.000Z,68.40
2019-03-20T17:10:26.969Z,69.10
2019-03-20T17:12:55.760Z,69.40
2019-03-20T17:15:25.475Z,69.70
2019-03-20T17:17:54.408Z,69.70
2019-03-20T17:20:23.502Z,69.60
2019-03-20T17:22:56.232Z,70.20
2019-03-20T17:25:25.348Z,70.20
2019-03-20T17:27:54.314Z,70.40
2019-03-20T17:30:28.115Z,70.60
2019-03-20T17:32:57.060Z,70.70
2019-03-20T17:35:28.687Z,71.60
2019-03-20T17:37:57.648Z,71.00
2019-03-20T17:40:27.075Z,71.40
2019-03-20T17:42:55.932Z,71.90
2019-03-20T17:45:25.401Z,72.60
2019-03-20T17:47:54.329Z,72.30
2019-03-20T17:50:24.970Z,72.40
2019-03-20T17:52:53.746Z,72.50
2019-03-20T17:55:22.520Z,72.60
2019-03-20T17:57:51.405Z,72.50
2019-03-20T18:00:34.558Z,72.70
2019-03-20T18:03:03.720Z,73.30
2019-03-20T18:05:32.700Z,73.70
2019-03-20T18:08:01.538Z,74.30
2019-03-20T18:10:30.400Z,74.10
2019-03-20T18:12:59.190Z,74.10
2019-03-20T18:15:28.077Z,74.50
2019-03-20T18:17:56.861Z,74.20
2019-03-20T18:20:25.802Z,75.50
2019-03-20T18:22:54.726Z,75.60
2019-03-20T18:25:23.543Z,75.90
2019-03-20T18:27:52.433Z,76.40
2019-03-20T18:30:22.082Z,76.60
2019-03-20T18:32:51.088Z,77.20
2019-03-20T18:35:20.001Z,80.60
2019-03-20T18:37:49.143Z,86.10
2019-03-20T18:40:18.289Z,90.50
2019-03-20T18:42:47.261Z,91.40
2019-03-20T18:45:17.373Z,92.80
2019-03-20T18:47:46.565Z,93.80
2019-03-20T18:50:16.957Z,95.70
2019-03-20T18:52:45.918Z,97.10
2019-03-20T18:55:15.029Z,99.50
2019-03-20T18:57:43.889Z,99.90
2019-03-20T19:00:23.546Z,99.90
2019-03-20T19:02:53.048Z,99.90
2019-03-20T19:05:43.395Z,99.90
2019-03-20T19:08:12.793Z,99.90
2019-03-20T19:10:41.824Z,99.90
2019-03-20T19:13:10.744Z,99.90
2019-03-20T19:15:39.962Z,99.90
2019-03-20T19:18:08.937Z,99.90
2019-03-20T19:20:38.008Z,99.90
2019-03-20T19:23:06.953Z,99.90
2019-03-20T19:25:35.906Z,99.90
2019-03-20T19:28:08.110Z,99.90
2019-03-20T19:30:36.998Z,99.90
2019-03-20T19:33:06.515Z,99.90
2019-03-20T19:35:35.392Z,99.90
2019-03-20T19:38:04.330Z,99.90
2019-03-20T19:40:33.215Z,99.90
2019-03-20T19:43:02.068Z,99.90
2019-03-20T19:45:30.929Z,99.90
2019-03-20T19:48:00.156Z,99.90
2019-03-20T19:50:30.797Z,99.90
2019-03-20T19:53:06.029Z,99.90
2019-03-20T19:55:34.830Z,99.90
2019-03-20T19:58:04.105Z,99.90
2019-03-20T20:00:33.098Z,99.90
2019-03-20T20:03:02.019Z,99.90
2019-03-20T20:05:43.115Z,99.90
2019-03-20T20:08:12.034Z,99.90
2019-03-20T20:10:41.416Z,99.90
2019-03-20T20:13:10.705Z,99.90
2019-03-20T20:15:39.855Z,99.90
2019-03-20T20:18:08.822Z,99.90
2019-03-20T20:20:37.847Z,99.90
2019-03-20T20:23:06.645Z,99.90
2019-03-20T20:25:35.523Z,99.90
2019-03-20T20:28:04.762Z,99.90
2019-03-20T20:30:33.544Z,99.90
2019-03-20T20:33:02.436Z,99.90
2019-03-20T20:35:31.301Z,99.90
2019-03-20T20:38:00.324Z,99.90
2019-03-20T20:40:29.161Z,99.90
2019-03-20T20:42:58.047Z,99.90
2019-03-20T20:45:26.996Z,99.90
2019-03-20T20:47:55.791Z,99.90
2019-03-20T20:50:24.773Z,99.90
2019-03-20T20:52:53.649Z,99.90
2019-03-20T20:55:22.770Z,99.90
2019-03-20T20:57:51.794Z,99.90
2019-03-20T21:00:21.029Z,99.90
2019-03-20T21:02:50.169Z,99.90
2019-03-20T21:05:19.090Z,99.90
2019-03-20T21:07:48.045Z,99.90
2019-03-20T21:10:17.079Z,99.90
2019-03-20T21:12:55.576Z,99.90
2019-03-20T21:15:34.911Z,99.90
2019-03-20T21:18:50.122Z,99.90
2019-03-20T21:21:19.577Z,99.90
2019-03-20T21:24:33.319Z,99.90
2019-03-20T21:27:43.755Z,99.90
2019-03-20T21:30:45.365Z,99.90
2019-03-20T21:33:46.077Z,99.90
2019-03-20T21:36:54.722Z,99.90
2019-03-20T21:39:24.116Z,99.90
2019-03-20T21:42:39.885Z,99.90
2019-03-20T21:45:29.751Z,99.90
2019-03-20T21:47:59.159Z,99.90
2019-03-20T21:51:21.454Z,99.90
2019-03-20T21:54:37.940Z,99.90
2019-03-20T21:57:51.907Z,99.90
2019-03-20T22:01:00.282Z,99.90
2019-03-20T22:03:29.607Z,99.90
2019-03-20T22:06:38.464Z,99.90
2019-03-20T22:09:29.581Z,99.90
2019-03-20T22:12:24.319Z,99.90
2019-03-20T22:15:02.331Z,99.90
2019-03-20T22:18:16.306Z,99.90
2019-03-20T22:21:03.563Z,99.90
2019-03-20T22:24:25.133Z,99.90
2019-03-20T22:27:37.910Z,99.90
2019-03-20T22:30:08.046Z,99.90
2019-03-20T22:33:27.597Z,99.90
2019-03-20T22:36:26.793Z,99.90
2019-03-20T22:39:41.590Z,99.90
2019-03-20T22:42:51.176Z,99.90
2019-03-20T22:46:03.430Z,99.90
2019-03-20T22:49:12.463Z,99.90
2019-03-20T22:52:43.978Z,99.90
2019-03-20T22:55:49.900Z,99.90
2019-03-20T22:58:44.532Z,99.90
2019-03-20T23:01:30.648Z,99.90
2019-03-20T23:04:08.001Z,99.90
2019-03-20T23:06:37.448Z,99.90
2019-03-20T23:09:08.513Z,99.90
2019-03-20T23:11:37.869Z,99.90
2019-03-20T23:14:07.396Z,99.90
2019-03-20T23:16:36.888Z,99.90
2019-03-20T23:19:06.286Z,99.90
2019-03-20T23:21:35.666Z,99.90
2019-03-20T23:24:05.275Z,99.90
2019-03-20T23:26:34.761Z,99.90
2019-03-20T23:29:04.785Z,99.90
2019-03-20T23:31:34.157Z,99.90
2019-03-20T23:34:03.531Z,99.90
2019-03-20T23:36:32.966Z,99.90
2019-03-20T23:39:02.404Z,99.90
2019-03-20T23:41:31.713Z,99.90
2019-03-20T23:44:01.182Z,99.90
2019-03-20T23:46:30.470Z,99.90
2019-03-20T23:49:06.682Z,99.90
2019-03-20T23:51:36.150Z,99.90
2019-03-20T23:54:05.667Z,99.90
2019-03-20T23:56:36.493Z,99.90
2019-03-20T23:59:06.526Z,99.90
